Time;durP1;ratioP1;P1;durP2;ratioP2;P2;SDS_P1;SDS_P2;PMS_P1;PMS_P2;Temp;Humidity;BMP_temperature;BMP_pressure;BME280_temperature;BME280_humidity;BME280_pressure;Samples;Min_cycle;Max_cycle;Signal;HPM_P1;HPM_P2
2023/09/25 00:01:49;;;;;;;8.63;5.35;;;;;;;18.38;92.58;96575.00;5133897;28;20047;-62
2023/09/25 00:04:18;;;;;;;11.10;5.97;;;;;;;18.36;92.85;96570.78;5134010;28;20046;-62
2023/09/25 00:06:45;;;;;;;5.55;5.05;;;;;;;18.39;92.62;96568.75;5134049;28;20122;-61
2023/09/25 00:09:12;;;;;;;6.22;4.78;;;;;;;18.39;92.45;96559.97;5133740;28;20047;-61
2023/09/25 00:11:39;;;;;;;6.75;5.28;;;;;;;18.35;92.73;96555.81;5133884;28;20104;-61
2023/09/25 00:14:06;;;;;;;5.97;5.43;;;;;;;18.38;92.18;96558.25;5133944;28;20373;-62
2023/09/25 00:16:33;;;;;;;7.90;5.80;;;;;;;18.35;92.19;96551.38;5133793;28;20108;-62
2023/09/25 00:19:00;;;;;;;8.82;5.35;;;;;;;18.40;91.65;96557.22;5133719;28;20057;-62
2023/09/25 00:21:30;;;;;;;6.03;5.43;;;;;;;18.40;91.32;96551.91;5133771;28;20088;-62
2023/09/25 00:23:57;;;;;;;7.18;5.22;;;;;;;18.42;90.72;96562.38;5133841;28;20039;-62
2023/09/25 00:26:24;;;;;;;9.65;5.93;;;;;;;18.41;90.53;96560.69;5133803;27;20043;-62
2023/09/25 00:28:51;;;;;;;8.40;5.75;;;;;;;18.37;91.07;96564.50;5133691;28;20047;-62
2023/09/25 00:31:18;;;;;;;6.72;5.30;;;;;;;18.36;90.72;96563.66;5133680;28;20053;-62
2023/09/25 00:33:45;;;;;;;7.10;5.78;;;;;;;18.36;90.62;96555.72;5133649;28;20096;-62
2023/09/25 00:36:12;;;;;;;7.68;5.57;;;;;;;18.34;90.83;96549.69;5133673;28;20043;-62
2023/09/25 00:38:40;;;;;;;5.80;5.20;;;;;;;18.38;90.29;96559.13;5133665;28;20039;-62
2023/09/25 00:41:08;;;;;;;6.50;5.45;;;;;;;18.41;90.02;96558.91;5133601;28;20104;-62
2023/09/25 00:43:36;;;;;;;5.85;5.03;;;;;;;18.42;89.42;96557.09;5133547;28;20100;-62
2023/09/25 00:46:03;;;;;;;6.50;5.32;;;;;;;18.40;89.03;96559.88;5133443;27;20126;-62
2023/09/25 00:48:32;;;;;;;8.15;5.65;;;;;;;18.39;89.18;96554.69;5136935;27;20047;-62
2023/09/25 00:51:01;;;;;;;8.63;5.78;;;;;;;18.43;88.97;96564.91;5137276;27;20131;-62
2023/09/25 00:53:30;;;;;;;6.63;5.35;;;;;;;18.37;89.45;96564.50;5137327;27;20141;-62
2023/09/25 00:55:59;;;;;;;8.18;6.28;;;;;;;18.31;89.25;96566.63;5137733;27;20118;-62
2023/09/25 00:58:27;;;;;;;7.30;5.60;;;;;;;18.24;89.60;96561.88;5137135;27;20553;-62
2023/09/25 01:00:55;;;;;;;7.55;6.22;;;;;;;18.14;90.63;96548.41;5136903;27;20496;-62
2023/09/25 01:03:22;;;;;;;9.77;6.43;;;;;;;18.04;91.29;96550.81;5137332;27;20373;-62
2023/09/25 01:05:49;;;;;;;7.20;5.72;;;;;;;18.02;91.63;96547.41;5137331;27;20039;-62
2023/09/25 01:08:26;;;;;;;9.35;6.32;;;;;;;17.98;92.22;96552.09;5137164;27;20121;-62
2023/09/25 01:10:53;;;;;;;9.02;7.20;;;;;;;17.96;92.22;96563.72;5136741;27;20092;-62
2023/09/25 01:13:22;;;;;;;7.05;6.10;;;;;;;17.98;92.26;96564.47;5137063;27;20051;-61
2023/09/25 01:15:49;;;;;;;9.90;5.97;;;;;;;18.01;91.89;96565.13;5136885;27;20099;-62
2023/09/25 01:18:17;;;;;;;6.90;6.20;;;;;;;18.02;92.47;96558.00;5136790;27;20054;-61
2023/09/25 01:20:44;;;;;;;8.07;6.45;;;;;;;18.11;91.71;96559.22;5136835;27;20054;-61
2023/09/25 01:23:13;;;;;;;11.02;5.47;;;;;;;18.18;91.04;96553.41;5136736;27;20449;-62
2023/09/25 01:25:40;;;;;;;9.00;6.65;;;;;;;18.27;90.42;96566.97;5136786;27;20058;-62
2023/09/25 01:28:09;;;;;;;8.93;5.45;;;;;;;18.33;89.59;96570.97;5136736;27;20126;-62
2023/09/25 01:30:36;;;;;;;6.97;5.50;;;;;;;18.37;88.52;96573.31;5136543;27;20047;-61
2023/09/25 01:33:04;;;;;;;7.70;6.18;;;;;;;18.39;88.28;96568.75;5136682;27;20053;-62
2023/09/25 01:35:31;;;;;;;7.28;5.45;;;;;;;18.45;87.65;96578.06;5136441;27;20054;-61
2023/09/25 01:38:00;;;;;;;8.38;5.90;;;;;;;18.50;86.80;96575.94;5136392;27;20039;-61
2023/09/25 01:40:28;;;;;;;6.35;5.72;;;;;;;18.57;85.88;96576.34;5136513;27;20043;-62
2023/09/25 01:42:56;;;;;;;6.05;5.55;;;;;;;18.58;85.44;96578.06;5136564;27;20400;-62
2023/09/25 01:45:24;;;;;;;7.65;5.38;;;;;;;18.58;85.11;96577.22;5136313;27;20051;-62
2023/09/25 01:47:53;;;;;;;8.48;5.88;;;;;;;18.56;84.63;96575.53;5136344;27;20044;-62
2023/09/25 01:50:21;;;;;;;8.15;5.70;;;;;;;18.58;84.53;96575.41;5136173;27;20059;-62
2023/09/25 01:52:51;;;;;;;8.70;5.63;;;;;;;18.54;84.16;96571.25;5136099;27;20039;-61
2023/09/25 01:55:19;;;;;;;6.82;6.10;;;;;;;18.49;84.80;96571.63;5136128;27;20069;-62
2023/09/25 01:57:47;;;;;;;6.03;5.10;;;;;;;18.54;84.10;96574.78;5135676;27;20143;-62
2023/09/25 02:00:18;;;;;;;6.25;5.20;;;;;;;18.51;83.95;96576.81;5136062;27;20045;-61
2023/09/25 02:02:45;;;;;;;8.40;5.95;;;;;;;18.47;83.80;96572.66;5136301;27;20049;-62
2023/09/25 02:05:13;;;;;;;8.70;5.78;;;;;;;18.39;84.53;96574.03;5135746;27;20093;-62
2023/09/25 02:07:40;;;;;;;7.40;5.25;;;;;;;18.42;83.93;96581.78;5135875;27;20043;-62
2023/09/25 02:10:09;;;;;;;7.72;5.20;;;;;;;18.42;83.83;96583.56;5135581;27;20054;-62
2023/09/25 02:12:36;;;;;;;12.15;5.53;;;;;;;18.40;83.11;96583.69;5135859;27;20043;-62
2023/09/25 02:15:06;;;;;;;7.78;5.18;;;;;;;18.40;82.43;96583.69;5135523;27;20053;-62
2023/09/25 02:17:34;;;;;;;7.43;5.18;;;;;;;18.40;82.13;96594.28;5135842;27;20072;-61
2023/09/25 02:20:20;;;;;;;6.28;5.63;;;;;;;18.36;81.71;96592.78;5135655;27;20054;-62
2023/09/25 02:22:47;;;;;;;7.53;5.38;;;;;;;18.35;81.76;96595.53;5135502;27;20046;-62
2023/09/25 02:25:15;;;;;;;9.63;5.22;;;;;;;18.33;81.19;96598.28;5135294;27;20407;-62
2023/09/25 02:27:42;;;;;;;8.05;4.65;;;;;;;18.27;80.78;96588.13;5135451;27;20047;-62
2023/09/25 02:30:11;;;;;;;5.97;5.20;;;;;;;18.18;80.47;96594.88;5135492;27;20047;-62
2023/09/25 02:32:41;;;;;;;9.30;5.32;;;;;;;18.10;81.00;96591.91;5135316;27;20046;-62
2023/09/25 02:35:09;;;;;;;8.63;4.82;;;;;;;18.07;80.83;96600.91;5135320;27;20126;-62
2023/09/25 02:37:37;;;;;;;6.07;4.82;;;;;;;18.03;80.56;96599.41;5135130;27;20050;-62
2023/09/25 02:40:06;;;;;;;13.82;5.75;;;;;;;18.01;80.24;96596.00;5135380;27;20055;-62
2023/09/25 02:42:33;;;;;;;6.72;4.95;;;;;;;17.94;79.92;96593.78;5135119;27;20050;-62
2023/09/25 02:45:00;;;;;;;8.65;4.88;;;;;;;17.88;79.60;96596.81;5135078;27;20071;-62
2023/09/25 02:47:29;;;;;;;5.28;4.78;;;;;;;17.86;79.67;96593.47;5135231;27;20043;-62
2023/09/25 02:49:56;;;;;;;5.30;4.80;;;;;;;17.80;79.32;96596.50;5134908;27;20500;-62
2023/09/25 02:52:23;;;;;;;5.40;4.88;;;;;;;17.74;79.62;96599.56;5134919;27;20047;-62
2023/09/25 02:54:50;;;;;;;5.93;5.15;;;;;;;17.68;80.16;96595.53;5134798;27;20051;-62
2023/09/25 02:57:17;;;;;;;9.93;4.68;;;;;;;17.59;80.26;96601.41;5134733;27;20043;-62
2023/09/25 02:59:44;;;;;;;5.60;5.07;;;;;;;17.51;80.31;96588.69;5134665;27;20050;-62
2023/09/25 03:02:11;;;;;;;9.18;5.47;;;;;;;17.42;80.60;96595.41;5134545;27;20047;-62
2023/09/25 03:04:40;;;;;;;7.90;5.43;;;;;;;17.36;81.70;96594.03;5134739;27;20108;-62
2023/09/25 03:07:07;;;;;;;6.20;5.13;;;;;;;17.26;81.82;96590.28;5134767;27;20058;-62
2023/09/25 03:09:34;;;;;;;7.18;5.10;;;;;;;17.24;82.36;96603.59;5134126;27;20047;-62
2023/09/25 03:12:02;;;;;;;6.28;5.68;;;;;;;17.19;83.06;96605.72;5134599;27;20055;-62
2023/09/25 03:14:29;;;;;;;6.95;5.72;;;;;;;17.14;84.35;96610.44;5134580;27;20043;-62
2023/09/25 03:16:56;;;;;;;7.82;5.38;;;;;;;17.13;84.13;96609.56;5134506;27;20054;-62
2023/09/25 03:19:23;;;;;;;7.93;6.68;;;;;;;17.14;84.72;96607.78;5134510;27;20051;-62
2023/09/25 03:21:52;;;;;;;7.82;5.88;;;;;;;17.14;84.32;96618.34;5134471;27;20092;-62
2023/09/25 03:24:19;;;;;;;7.30;6.05;;;;;;;17.08;84.32;96616.09;5134346;27;20039;-62
2023/09/25 03:26:46;;;;;;;8.05;5.57;;;;;;;17.08;83.79;96614.31;5134314;27;20118;-62
2023/09/25 03:29:14;;;;;;;9.15;6.07;;;;;;;17.09;84.04;96625.72;5134690;27;20047;-62
2023/09/25 03:31:41;;;;;;;6.75;6.05;;;;;;;17.09;83.84;96626.56;5134240;27;20082;-62
2023/09/25 03:34:08;;;;;;;9.98;6.40;;;;;;;17.05;83.22;96625.91;5134495;27;20039;-62
2023/09/25 03:36:35;;;;;;;5.95;4.90;;;;;;;17.02;83.31;96628.72;5134379;27;20047;-62
2023/09/25 03:39:04;;;;;;;5.53;5.03;;;;;;;17.01;83.76;96626.19;5134188;27;20100;-62
2023/09/25 03:41:31;;;;;;;9.23;5.70;;;;;;;16.98;83.68;96637.78;5134260;27;20050;-62
2023/09/25 03:43:58;;;;;;;9.63;5.97;;;;;;;16.94;84.49;96633.63;5134229;27;20043;-62
2023/09/25 03:46:26;;;;;;;7.45;6.28;;;;;;;16.91;85.17;96642.59;5134059;27;20050;-62
2023/09/25 03:48:53;;;;;;;10.52;6.45;;;;;;;16.93;85.68;96639.88;5134149;27;20126;-62
2023/09/25 03:51:20;;;;;;;8.40;6.10;;;;;;;16.96;84.53;96647.59;5134053;28;20057;-62
2023/09/25 03:53:47;;;;;;;6.28;5.70;;;;;;;16.96;84.77;96647.59;5134141;28;20047;-62
2023/09/25 03:56:16;;;;;;;9.20;6.05;;;;;;;16.98;84.48;96644.88;5133893;28;20419;-62
2023/09/25 03:58:43;;;;;;;7.60;6.40;;;;;;;16.97;84.87;96641.38;5134008;28;20108;-62
2023/09/25 04:01:10;;;;;;;8.75;6.82;;;;;;;16.95;87.81;96643.28;5133808;28;20047;-62
2023/09/25 04:03:38;;;;;;;7.85;7.05;;;;;;;17.00;88.43;96645.59;5134150;28;20420;-62
2023/09/25 04:06:05;;;;;;;8.38;6.10;;;;;;;17.04;87.86;96647.13;5134015;28;20069;-62
2023/09/25 04:08:33;;;;;;;11.35;7.10;;;;;;;17.05;89.25;96654.09;5134001;27;20047;-62
2023/09/25 04:11:01;;;;;;;9.63;6.88;;;;;;;17.05;89.54;96648.81;5133895;28;20130;-62
2023/09/25 04:13:31;;;;;;;12.32;7.20;;;;;;;17.10;89.65;96656.50;5133932;28;20047;-62
2023/09/25 04:15:58;;;;;;;7.73;6.40;;;;;;;17.13;89.23;96649.19;5133902;28;20047;-62
2023/09/25 04:18:26;;;;;;;11.30;6.47;;;;;;;17.18;88.99;96652.41;5133742;28;20666;-62
2023/09/25 04:20:55;;;;;;;10.95;6.95;;;;;;;17.23;89.28;96654.78;5134792;27;20047;-62
2023/09/25 04:23:23;;;;;;;8.93;6.55;;;;;;;17.28;89.24;96654.50;5137933;27;20057;-62
2023/09/25 04:25:52;;;;;;;10.32;6.65;;;;;;;17.38;89.54;96652.97;5137942;27;20091;-62
2023/09/25 04:28:20;;;;;;;6.53;5.93;;;;;;;17.47;88.82;96661.22;5137755;27;20049;-62
2023/09/25 04:30:49;;;;;;;7.65;6.22;;;;;;;17.57;88.14;96666.78;5138087;27;20082;-62
2023/09/25 04:33:17;;;;;;;6.93;6.22;;;;;;;17.66;87.70;96663.53;5137690;27;20047;-62
2023/09/25 04:35:45;;;;;;;9.60;6.00;;;;;;;17.70;87.48;96667.66;5137599;27;20043;-62
2023/09/25 04:38:12;;;;;;;8.98;5.75;;;;;;;17.79;87.06;96668.88;5137730;27;20082;-62
2023/09/25 04:40:42;;;;;;;7.28;5.50;;;;;;;17.85;86.57;96671.09;5137589;27;20086;-62
2023/09/25 04:43:09;;;;;;;8.85;6.72;;;;;;;17.91;86.23;96676.00;5137438;27;20534;-62
2023/09/25 04:45:36;;;;;;;9.52;6.47;;;;;;;17.92;86.45;96677.72;5137412;27;20079;-62
2023/09/25 04:48:06;;;;;;;7.40;5.90;;;;;;;17.93;86.10;96671.47;5137407;27;20087;-62
2023/09/25 04:50:33;;;;;;;10.77;6.53;;;;;;;18.02;86.42;96667.38;5137278;27;20059;-62
2023/09/25 04:53:00;;;;;;;9.40;6.50;;;;;;;18.10;86.85;96661.59;5137433;27;20054;-62
2023/09/25 04:55:27;;;;;;;6.85;5.97;;;;;;;18.18;86.49;96666.34;5137202;27;20043;-62
2023/09/25 04:57:54;;;;;;;7.68;6.60;;;;;;;18.26;86.57;96669.34;5137083;27;20488;-62
2023/09/25 05:00:24;;;;;;;6.63;5.75;;;;;;;18.31;85.29;96669.88;5137034;27;20047;-62
2023/09/25 05:02:52;;;;;;;13.13;6.35;;;;;;;18.34;85.01;96676.78;5137269;27;20039;-62
2023/09/25 05:05:21;;;;;;;15.77;6.30;;;;;;;18.35;84.91;96678.47;5137358;27;20047;-62
2023/09/25 05:07:49;;;;;;;9.15;6.43;;;;;;;18.40;85.45;96679.03;5137112;27;20039;-62
2023/09/25 05:10:18;;;;;;;8.43;6.05;;;;;;;18.43;84.69;96677.97;5137011;27;20051;-62
2023/09/25 05:12:46;;;;;;;7.78;5.78;;;;;;;18.48;84.96;96678.47;5137028;27;20122;-62
2023/09/25 05:15:14;;;;;;;6.65;6.05;;;;;;;18.57;85.31;96690.25;5137095;27;20043;-62
2023/09/25 05:17:42;;;;;;;7.60;6.00;;;;;;;18.56;84.37;96692.06;5136818;27;20413;-62
2023/09/25 05:20:11;;;;;;;9.77;6.53;;;;;;;18.58;84.14;96686.66;5136843;27;20118;-62
2023/09/25 05:22:41;;;;;;;9.40;6.65;;;;;;;18.67;83.89;96687.84;5136735;27;20053;-62
2023/09/25 05:25:11;;;;;;;6.55;5.95;;;;;;;18.74;84.92;96683.81;5136768;27;20401;-62
2023/09/25 05:27:39;;;;;;;11.13;5.50;;;;;;;18.73;84.01;96676.81;5136483;27;20404;-62
2023/09/25 05:30:09;;;;;;;8.95;6.18;;;;;;;18.82;84.11;96683.28;5136658;27;20046;-62
2023/09/25 05:32:36;;;;;;;11.57;5.80;;;;;;;18.88;82.16;96680.19;5135697;27;20054;-62
2023/09/25 05:35:05;;;;;;;6.18;5.57;;;;;;;18.92;83.19;96683.47;5136616;27;20492;-62
2023/09/25 05:37:32;;;;;;;9.60;5.72;;;;;;;19.01;82.94;96689.94;5136805;27;20051;-62
2023/09/25 05:40:01;;;;;;;7.25;5.97;;;;;;;19.03;82.44;96683.56;5136416;27;20043;-62
2023/09/25 05:42:28;;;;;;;7.45;5.72;;;;;;;19.15;82.26;96687.16;5136450;27;20378;-62
2023/09/25 05:44:56;;;;;;;8.48;5.35;;;;;;;19.28;82.93;96689.81;5136549;27;20047;-62
2023/09/25 05:47:23;;;;;;;7.00;5.80;;;;;;;19.34;80.76;96692.97;5136356;27;20048;-62
2023/09/25 05:49:50;;;;;;;9.00;5.68;;;;;;;19.40;79.70;96693.41;5136454;27;20043;-62
2023/09/25 05:52:17;;;;;;;7.93;5.53;;;;;;;19.50;79.72;96703.34;5136115;27;20435;-62
2023/09/25 05:54:45;;;;;;;6.85;5.32;;;;;;;19.66;78.92;96700.44;5136175;27;20054;-62
2023/09/25 05:57:14;;;;;;;7.10;5.70;;;;;;;19.86;78.19;96706.94;5136090;27;20092;-62
2023/09/25 05:59:41;;;;;;;8.60;5.70;;;;;;;20.06;77.50;96707.31;5136006;27;20485;-62
2023/09/25 06:02:08;;;;;;;8.65;4.93;;;;;;;20.24;77.17;96713.06;5136060;27;20054;-62
2023/09/25 06:04:36;;;;;;;7.38;5.22;;;;;;;20.42;75.94;96715.28;5135897;27;20050;-62
2023/09/25 06:07:04;;;;;;;8.70;5.07;;;;;;;20.55;73.69;96720.50;5135921;27;20047;-62
2023/09/25 06:09:32;;;;;;;11.63;5.45;;;;;;;20.72;73.51;96713.91;5135833;27;20049;-62
2023/09/25 06:11:59;;;;;;;7.45;5.63;;;;;;;20.83;73.22;96718.41;5135787;27;20047;-62
2023/09/25 06:14:28;;;;;;;9.77;6.07;;;;;;;20.97;72.42;96725.34;5135797;27;20051;-62
2023/09/25 06:16:57;;;;;;;13.88;6.28;;;;;;;21.02;71.65;96723.19;5135791;27;20047;-62
2023/09/25 06:19:26;;;;;;;6.10;5.50;;;;;;;21.13;71.92;96732.13;5135728;27;20116;-62
2023/09/25 06:21:53;;;;;;;7.60;5.20;;;;;;;21.23;71.12;96730.44;5135623;27;20055;-62
2023/09/25 06:24:21;;;;;;;7.78;5.28;;;;;;;21.36;70.81;96740.94;5135453;27;20039;-62
2023/09/25 06:26:49;;;;;;;8.88;5.35;;;;;;;21.49;70.94;96729.34;5135472;27;20055;-62
2023/09/25 06:29:17;;;;;;;8.75;4.95;;;;;;;21.67;70.16;96741.16;5135457;27;20043;-62
2023/09/25 06:31:46;;;;;;;9.07;5.03;;;;;;;21.84;68.83;96731.84;5135167;27;20143;-62
2023/09/25 06:34:13;;;;;;;10.10;4.38;;;;;;;22.02;67.39;96733.13;5135387;27;20047;-62
2023/09/25 06:36:40;;;;;;;6.47;4.60;;;;;;;22.15;65.40;96733.81;5135363;27;20069;-62
2023/09/25 06:39:09;;;;;;;9.43;4.38;;;;;;;22.19;63.33;96732.56;5135513;27;20083;-62
2023/09/25 06:41:38;;;;;;;5.53;4.28;;;;;;;22.19;62.07;96737.06;5135309;27;20043;-62
2023/09/25 06:44:06;;;;;;;7.88;4.70;;;;;;;22.19;61.46;96740.56;5134225;27;20049;-62
2023/09/25 06:46:33;;;;;;;8.38;4.50;;;;;;;22.27;60.59;96747.09;5134799;27;20078;-62
2023/09/25 06:49:04;;;;;;;6.10;4.28;;;;;;;22.39;60.95;96740.75;5135140;27;20075;-62
2023/09/25 06:51:31;;;;;;;7.10;4.00;;;;;;;22.61;59.88;96752.31;5135005;27;20080;-62
2023/09/25 06:53:58;;;;;;;11.38;4.43;;;;;;;22.72;60.13;96754.91;5135052;27;20042;-62
2023/09/25 06:56:26;;;;;;;6.28;4.25;;;;;;;22.94;57.59;96754.91;5134816;27;20108;-62
2023/09/25 06:58:53;;;;;;;10.93;4.50;;;;;;;23.06;57.24;96753.84;5134884;27;20058;-62
2023/09/25 07:01:21;;;;;;;6.50;4.55;;;;;;;23.37;57.13;96754.88;5134648;27;20059;-62
2023/09/25 07:03:48;;;;;;;7.10;3.90;;;;;;;23.63;55.52;96755.25;5134801;27;20129;-62
2023/09/25 07:06:17;;;;;;;6.05;4.03;;;;;;;23.91;53.89;96752.81;5134858;27;20058;-62
2023/09/25 07:08:44;;;;;;;8.65;4.30;;;;;;;24.18;53.71;96758.50;5134568;27;20043;-62
2023/09/25 07:11:11;;;;;;;11.27;4.35;;;;;;;24.56;53.23;96759.47;5134483;27;20512;-62
2023/09/25 07:13:38;;;;;;;6.78;3.20;;;;;;;24.91;52.00;96756.38;5134618;27;20046;-62
2023/09/25 07:16:08;;;;;;;4.32;3.60;;;;;;;25.14;51.51;96764.94;5134456;27;20086;-62
2023/09/25 07:18:36;;;;;;;9.77;4.07;;;;;;;25.13;51.21;96762.41;5134596;27;20061;-62
2023/09/25 07:21:03;;;;;;;7.43;3.65;;;;;;;25.20;50.65;96755.47;5134846;27;20078;-62
2023/09/25 07:23:32;;;;;;;6.15;3.55;;;;;;;25.05;50.47;96755.09;5134622;27;20122;-62
2023/09/25 07:26:01;;;;;;;4.65;3.70;;;;;;;25.02;50.76;96758.91;5134362;27;20079;-62
2023/09/25 07:28:29;;;;;;;7.13;3.88;;;;;;;25.17;50.73;96755.75;5134456;27;20564;-62
2023/09/25 07:30:58;;;;;;;8.63;4.20;;;;;;;25.34;49.07;96754.13;5134266;27;20077;-62
2023/09/25 07:33:24;;;;;;;6.25;3.88;;;;;;;25.67;48.96;96751.91;5134118;27;20051;-62
2023/09/25 07:35:51;;;;;;;9.05;4.07;;;;;;;26.05;47.66;96751.84;5134245;27;20039;-62
2023/09/25 07:38:19;;;;;;;3.90;3.22;;;;;;;26.08;46.89;96750.69;5134128;27;20051;-62
2023/09/25 07:40:48;;;;;;;11.80;4.45;;;;;;;26.10;46.67;96754.09;5134514;27;20108;-62
2023/09/25 07:43:19;;;;;;;6.93;3.28;;;;;;;26.24;47.15;96748.19;5134426;27;20070;-62
2023/09/25 07:45:48;;;;;;;7.13;3.85;;;;;;;26.04;46.17;96754.69;5134348;27;20051;-62
2023/09/25 07:48:16;;;;;;;5.53;3.80;;;;;;;26.13;46.05;96745.75;5134038;27;20501;-62
2023/09/25 07:50:45;;;;;;;6.18;3.40;;;;;;;26.24;45.29;96750.88;5134082;27;20053;-62
2023/09/25 07:53:12;;;;;;;5.88;3.47;;;;;;;26.31;45.15;96753.81;5133979;28;20104;-62
2023/09/25 07:55:40;;;;;;;7.85;3.28;;;;;;;26.19;45.82;96749.66;5133466;27;20447;-62
2023/09/25 07:58:11;;;;;;;6.85;3.60;;;;;;;26.15;45.66;96743.75;5134140;28;20051;-62
2023/09/25 08:00:44;;;;;;;4.85;3.47;;;;;;;26.41;46.08;96744.84;5133849;28;20047;-62
2023/09/25 08:03:15;;;;;;;6.05;3.72;;;;;;;26.75;44.93;96754.84;5133875;28;20096;-62
2023/09/25 08:05:42;;;;;;;6.32;3.55;;;;;;;26.83;44.19;96751.41;5133984;28;20078;-62
2023/09/25 08:08:12;;;;;;;9.07;3.72;;;;;;;26.83;43.48;96746.88;5133988;28;20104;-62
2023/09/25 08:10:41;;;;;;;7.65;3.25;;;;;;;26.97;44.17;96742.75;5133989;28;20485;-62
2023/09/25 08:13:13;;;;;;;7.25;4.00;;;;;;;26.75;44.24;96742.28;5133884;28;20051;-62
2023/09/25 08:15:40;;;;;;;10.10;4.15;;;;;;;26.49;44.29;96740.41;5133958;28;20063;-62
2023/09/25 08:18:08;;;;;;;6.20;3.80;;;;;;;26.14;44.82;96725.97;5134005;28;20047;-62
2023/09/25 08:20:39;;;;;;;6.38;3.55;;;;;;;26.05;44.88;96741.13;5133846;28;20099;-62
2023/09/25 08:23:07;;;;;;;7.93;3.95;;;;;;;25.90;44.80;96729.25;5133728;27;20104;-62
2023/09/25 08:25:35;;;;;;;9.63;3.47;;;;;;;26.17;45.02;96735.53;5134067;28;20043;-62
2023/09/25 08:28:03;;;;;;;5.88;3.58;;;;;;;26.28;43.95;96729.13;5133866;27;20080;-62
2023/09/25 08:30:32;;;;;;;10.98;3.67;;;;;;;26.43;44.40;96724.09;5133747;27;20047;-62
2023/09/25 08:33:00;;;;;;;8.37;3.50;;;;;;;26.56;43.98;96729.06;5133792;28;20493;-62
2023/09/25 08:35:28;;;;;;;8.90;3.47;;;;;;;26.74;44.43;96729.03;5133753;27;20504;-62
2023/09/25 08:37:55;;;;;;;7.65;3.80;;;;;;;26.86;43.88;96725.09;5133688;28;20055;-62
2023/09/25 08:40:23;;;;;;;5.75;3.40;;;;;;;26.72;43.25;96731.00;5133860;28;20071;-62
2023/09/25 08:42:51;;;;;;;4.78;3.47;;;;;;;26.44;44.17;96728.44;5133849;28;20092;-62
2023/09/25 08:45:21;;;;;;;6.30;3.50;;;;;;;26.41;44.00;96726.06;5133626;28;20043;-62
2023/09/25 08:47:50;;;;;;;7.60;3.60;;;;;;;26.39;43.57;96718.19;5133848;28;20043;-62
2023/09/25 08:50:18;;;;;;;7.50;3.50;;;;;;;26.37;43.80;96718.34;5133608;28;20054;-62
2023/09/25 08:52:47;;;;;;;15.73;4.10;;;;;;;26.41;44.31;96718.88;5133651;27;20485;-62
2023/09/25 08:55:15;;;;;;;5.72;3.58;;;;;;;26.54;43.35;96720.31;5133509;28;20047;-62
2023/09/25 08:57:43;;;;;;;12.65;3.25;;;;;;;26.63;43.36;96724.75;5133477;28;20074;-62
2023/09/25 09:00:14;;;;;;;7.47;3.88;;;;;;;26.53;43.33;96713.28;5133517;28;20081;-62
2023/09/25 09:02:42;;;;;;;5.22;3.65;;;;;;;26.42;43.72;96714.34;5133369;28;20051;-62
2023/09/25 09:05:12;;;;;;;13.63;3.53;;;;;;;26.23;43.06;96716.19;5133513;28;20054;-62
2023/09/25 09:07:40;;;;;;;9.70;4.22;;;;;;;26.20;44.22;96717.34;5134181;27;20039;-61
2023/09/25 09:10:08;;;;;;;6.25;3.90;;;;;;;26.33;44.21;96711.59;5137131;27;20051;-62
2023/09/25 09:12:52;;;;;;;8.23;3.42;;;;;;;26.43;42.22;96724.09;5137266;27;20083;-62
2023/09/25 09:15:26;;;;;;;7.57;3.60;;;;;;;26.17;43.49;96723.00;5137106;27;20047;-62
2023/09/25 09:17:53;;;;;;;5.18;3.67;;;;;;;26.04;43.54;96715.34;5136813;27;20047;-61
2023/09/25 09:20:22;;;;;;;10.57;3.92;;;;;;;26.06;44.55;96707.97;5136789;27;20504;-62
2023/09/25 09:22:53;;;;;;;5.20;3.67;;;;;;;26.17;43.06;96708.75;5136971;27;20043;-61
2023/09/25 09:25:21;;;;;;;;;;;;;;;26.23;43.37;96713.50;5137199;27;20145;-62
2023/09/25 09:27:49;;;;;;;10.45;4.38;;;;;;;26.49;43.27;96710.91;5136821;27;19962;-62
2023/09/25 09:30:26;;;;;;;6.72;3.15;;;;;;;26.73;42.99;96717.44;5136632;27;20054;-62
2023/09/25 09:32:53;;;;;;;7.80;4.03;;;;;;;26.79;41.60;96723.19;5136841;27;20083;-62
2023/09/25 09:35:25;;;;;;;4.80;3.45;;;;;;;26.71;40.59;96715.94;5136739;27;20043;-62
2023/09/25 09:37:53;;;;;;;8.27;3.78;;;;;;;26.62;40.99;96710.53;5136521;27;20043;-62
2023/09/25 09:40:21;;;;;;;8.18;3.70;;;;;;;26.70;41.84;96714.25;5136350;27;20417;-62
2023/09/25 09:42:50;;;;;;;9.38;3.72;;;;;;;26.86;40.30;96711.69;5136369;27;20055;-62
2023/09/25 09:45:18;;;;;;;8.45;3.63;;;;;;;27.02;41.17;96720.03;5136418;27;20047;-62
2023/09/25 09:47:48;;;;;;;8.73;3.70;;;;;;;27.14;39.96;96708.00;5136347;27;20086;-62
2023/09/25 09:50:22;;;;;;;11.90;3.65;;;;;;;27.33;39.86;96708.78;5136597;27;20069;-61
2023/09/25 09:52:51;;;;;;;6.45;3.50;;;;;;;27.44;39.62;96688.84;5136301;27;20058;-62
2023/09/25 09:55:21;;;;;;;9.98;3.72;;;;;;;27.35;38.49;96706.78;5136503;27;20395;-61
2023/09/25 09:57:49;;;;;;;7.97;3.70;;;;;;;27.11;38.24;96711.88;5136607;27;20104;-61
2023/09/25 10:00:17;;;;;;;6.03;3.28;;;;;;;27.10;38.59;96703.97;5135966;27;20047;-62
2023/09/25 10:02:45;;;;;;;6.47;3.58;;;;;;;26.91;38.68;96713.88;5135788;27;20051;-62
2023/09/25 10:05:14;;;;;;;11.27;3.38;;;;;;;26.97;38.59;96699.84;5136067;27;20127;-61
2023/09/25 10:08:09;;;;;;;7.53;3.58;;;;;;;27.08;38.54;96701.44;5135845;27;20043;-61
2023/09/25 10:10:38;;;;;;;7.40;3.55;;;;;;;27.25;38.11;96683.59;5136027;27;20090;-62
2023/09/25 10:13:08;;;;;;;8.27;3.53;;;;;;;27.10;38.15;96694.09;5135829;27;20481;-61
2023/09/25 10:15:38;;;;;;;7.55;3.38;;;;;;;27.07;38.76;96697.09;5135755;27;20053;-62
2023/09/25 10:18:07;;;;;;;5.82;3.03;;;;;;;27.04;38.29;96691.19;5135756;27;20048;-62
2023/09/25 10:20:38;;;;;;;7.03;3.20;;;;;;;27.03;38.55;96690.34;5135424;27;20126;-62
2023/09/25 10:23:10;;;;;;;5.88;3.40;;;;;;;26.94;38.71;96677.84;5135613;27;20057;-62
2023/09/25 10:25:47;;;;;;;6.03;3.53;;;;;;;27.02;39.02;96688.66;5135629;27;20079;-61
2023/09/25 10:28:19;;;;;;;5.45;3.10;;;;;;;27.12;39.21;96675.16;5135561;27;20138;-62
2023/09/25 10:30:46;;;;;;;6.88;3.50;;;;;;;27.31;39.08;96683.94;5135507;27;20127;-62
2023/09/25 10:33:13;;;;;;;7.65;3.33;;;;;;;27.23;38.66;96668.63;5135296;27;20047;-62
2023/09/25 10:35:42;;;;;;;9.50;3.58;;;;;;;27.27;37.87;96664.63;5135349;27;20047;-62
2023/09/25 10:38:14;;;;;;;5.85;2.97;;;;;;;27.24;38.21;96659.59;5135193;27;20043;-62
2023/09/25 10:40:45;;;;;;;5.18;3.10;;;;;;;27.44;37.07;96678.09;5135293;27;20082;-62
2023/09/25 10:43:15;;;;;;;6.78;3.30;;;;;;;27.34;37.04;96678.25;5135089;27;20556;-62
2023/09/25 10:45:43;;;;;;;12.95;3.38;;;;;;;27.32;37.02;96664.13;5135092;27;20122;-61
2023/09/25 10:48:11;;;;;;;12.32;3.60;;;;;;;27.46;38.26;96668.91;5135195;27;20051;-62
2023/09/25 10:50:38;;;;;;;7.90;3.08;;;;;;;27.54;37.14;96661.88;5134992;27;20487;-61
2023/09/25 10:53:07;;;;;;;7.00;3.03;;;;;;;27.61;36.65;96665.59;5134971;27;20087;-62
2023/09/25 10:55:36;;;;;;;7.85;3.47;;;;;;;27.66;36.11;96667.81;5135026;27;20134;-62
2023/09/25 10:58:05;;;;;;;9.27;3.20;;;;;;;27.64;36.48;96659.91;5135023;27;20054;-61
2023/09/25 11:00:32;;;;;;;6.13;3.45;;;;;;;27.48;36.09;96668.75;5134962;27;20066;-61
2023/09/25 11:03:01;;;;;;;6.57;3.20;;;;;;;27.34;36.53;96652.25;5134787;27;20047;-62
2023/09/25 11:05:29;;;;;;;7.93;3.65;;;;;;;27.49;36.81;96657.00;5135194;27;20420;-62
2023/09/25 11:07:56;;;;;;;5.03;3.45;;;;;;;27.62;35.97;96652.00;5134660;27;20073;-62
2023/09/25 11:10:28;;;;;;;9.50;3.50;;;;;;;27.71;35.67;96654.72;5134736;27;20496;-61
2023/09/25 11:12:59;;;;;;;6.65;3.10;;;;;;;27.53;35.07;96662.88;5134770;27;20079;-61
2023/09/25 11:15:26;;;;;;;;;;;;;;;27.33;35.75;96653.22;5135144;27;20048;-61
2023/09/25 11:17:53;;;;;;;6.72;3.15;;;;;;;27.53;35.93;96649.44;5134593;27;19919;-61
2023/09/25 11:20:29;;;;;;;8.23;3.55;;;;;;;27.80;37.06;96640.31;5134373;27;20583;-62
2023/09/25 11:23:04;;;;;;;7.07;2.97;;;;;;;27.79;34.93;96646.69;5134737;27;20104;-62
2023/09/25 11:25:31;;;;;;;6.53;3.10;;;;;;;27.83;35.11;96634.59;5134468;27;20062;-62
2023/09/25 11:28:03;;;;;;;7.97;3.20;;;;;;;27.68;35.22;96630.88;5134594;27;20047;-62
2023/09/25 11:30:31;;;;;;;8.10;3.38;;;;;;;27.75;35.78;96631.88;5133833;27;20125;-61
2023/09/25 11:32:59;;;;;;;5.75;2.95;;;;;;;27.83;35.60;96639.97;5134356;27;20450;-61
2023/09/25 11:35:27;;;;;;;4.75;3.15;;;;;;;27.86;35.25;96626.22;5134568;27;20055;-62
2023/09/25 11:37:59;;;;;;;5.43;3.25;;;;;;;28.18;35.25;96622.88;5134260;27;20043;-62
2023/09/25 11:40:26;;;;;;;6.50;3.42;;;;;;;28.23;34.91;96632.09;5134356;27;20477;-61